sensor_id;sensor_type;location;lat;lon;timestamp;temperature;humidity
78297;DHT22;67555;47.660;19.622;2023-05-07T00:02:06;14.90;74.60
78297;DHT22;67555;47.660;19.622;2023-05-07T00:04:32;14.80;74.90
78297;DHT22;67555;47.660;19.622;2023-05-07T00:07:02;14.80;75.10
78297;DHT22;67555;47.660;19.622;2023-05-07T00:09:28;14.80;75.10
78297;DHT22;67555;47.660;19.622;2023-05-07T00:11:54;14.70;75.40
78297;DHT22;67555;47.660;19.622;2023-05-07T00:14:20;14.70;75.50
78297;DHT22;67555;47.660;19.622;2023-05-07T00:16:46;14.70;75.60
78297;DHT22;67555;47.660;19.622;2023-05-07T00:19:12;14.60;75.80
78297;DHT22;67555;47.660;19.622;2023-05-07T00:21:37;14.60;75.90
78297;DHT22;67555;47.660;19.622;2023-05-07T00:24:03;14.60;76.00
78297;DHT22;67555;47.660;19.622;2023-05-07T00:26:29;14.70;75.80
78297;DHT22;67555;47.660;19.622;2023-05-07T00:28:55;14.60;75.90
78297;DHT22;67555;47.660;19.622;2023-05-07T00:31:21;14.60;76.10
78297;DHT22;67555;47.660;19.622;2023-05-07T00:33:46;14.60;76.20
78297;DHT22;67555;47.660;19.622;2023-05-07T00:36:12;14.60;76.30
78297;DHT22;67555;47.660;19.622;2023-05-07T00:38:38;14.50;76.50
78297;DHT22;67555;47.660;19.622;2023-05-07T00:41:04;14.40;76.60
78297;DHT22;67555;47.660;19.622;2023-05-07T00:43:30;14.40;76.70
78297;DHT22;67555;47.660;19.622;2023-05-07T00:45:57;14.30;76.90
78297;DHT22;67555;47.660;19.622;2023-05-07T00:48:24;14.20;77.10
78297;DHT22;67555;47.660;19.622;2023-05-07T00:50:51;14.10;77.50
78297;DHT22;67555;47.660;19.622;2023-05-07T00:53:16;14.10;77.70
78297;DHT22;67555;47.660;19.622;2023-05-07T00:55:42;14.00;78.00
78297;DHT22;67555;47.660;19.622;2023-05-07T00:58:08;14.00;78.40
78297;DHT22;67555;47.660;19.622;2023-05-07T01:00:34;13.90;78.80
78297;DHT22;67555;47.660;19.622;2023-05-07T01:03:01;13.80;79.00
78297;DHT22;67555;47.660;19.622;2023-05-07T01:05:27;13.70;79.10
78297;DHT22;67555;47.660;19.622;2023-05-07T01:07:54;13.60;79.20
78297;DHT22;67555;47.660;19.622;2023-05-07T01:10:21;13.50;79.30
78297;DHT22;67555;47.660;19.622;2023-05-07T01:12:48;13.60;79.10
78297;DHT22;67555;47.660;19.622;2023-05-07T01:15:15;13.60;78.80
78297;DHT22;67555;47.660;19.622;2023-05-07T01:17:43;13.70;78.20
78297;DHT22;67555;47.660;19.622;2023-05-07T01:20:09;13.60;77.90
78297;DHT22;67555;47.660;19.622;2023-05-07T01:22:39;13.50;77.90
78297;DHT22;67555;47.660;19.622;2023-05-07T01:25:06;13.30;77.90
78297;DHT22;67555;47.660;19.622;2023-05-07T01:27:33;13.30;77.60
78297;DHT22;67555;47.660;19.622;2023-05-07T01:30:01;13.10;77.50
78297;DHT22;67555;47.660;19.622;2023-05-07T01:32:35;13.00;77.80
78297;DHT22;67555;47.660;19.622;2023-05-07T01:35:05;13.00;78.00
78297;DHT22;67555;47.660;19.622;2023-05-07T01:37:34;12.90;78.00
78297;DHT22;67555;47.660;19.622;2023-05-07T01:40:01;12.90;78.00
78297;DHT22;67555;47.660;19.622;2023-05-07T01:42:29;12.90;77.80
78297;DHT22;67555;47.660;19.622;2023-05-07T01:44:55;12.90;77.80
78297;DHT22;67555;47.660;19.622;2023-05-07T01:47:21;12.90;78.00
78297;DHT22;67555;47.660;19.622;2023-05-07T01:49:47;12.90;77.80
78297;DHT22;67555;47.660;19.622;2023-05-07T01:52:13;12.90;77.90
78297;DHT22;67555;47.660;19.622;2023-05-07T01:54:39;12.90;78.10
78297;DHT22;67555;47.660;19.622;2023-05-07T01:57:05;12.80;78.40
78297;DHT22;67555;47.660;19.622;2023-05-07T01:59:30;12.80;78.50
78297;DHT22;67555;47.660;19.622;2023-05-07T02:01:56;12.80;78.60
78297;DHT22;67555;47.660;19.622;2023-05-07T02:04:22;12.70;78.70
78297;DHT22;67555;47.660;19.622;2023-05-07T02:06:47;12.70;78.80
78297;DHT22;67555;47.660;19.622;2023-05-07T02:09:13;12.80;78.70
78297;DHT22;67555;47.660;19.622;2023-05-07T02:11:40;12.80;78.50
78297;DHT22;67555;47.660;19.622;2023-05-07T02:14:06;12.80;78.60
78297;DHT22;67555;47.660;19.622;2023-05-07T02:16:31;12.80;78.60
78297;DHT22;67555;47.660;19.622;2023-05-07T02:18:57;12.70;78.70
78297;DHT22;67555;47.660;19.622;2023-05-07T02:21:24;12.80;78.80
78297;DHT22;67555;47.660;19.622;2023-05-07T02:23:50;12.80;78.90
78297;DHT22;67555;47.660;19.622;2023-05-07T02:26:16;12.70;79.10
78297;DHT22;67555;47.660;19.622;2023-05-07T02:28:41;12.60;79.50
78297;DHT22;67555;47.660;19.622;2023-05-07T02:31:07;12.50;79.80
78297;DHT22;67555;47.660;19.622;2023-05-07T02:33:33;12.50;79.90
78297;DHT22;67555;47.660;19.622;2023-05-07T02:36:10;12.60;79.90
78297;DHT22;67555;47.660;19.622;2023-05-07T02:38:37;12.70;79.70
78297;DHT22;67555;47.660;19.622;2023-05-07T02:41:02;12.80;79.60
78297;DHT22;67555;47.660;19.622;2023-05-07T02:43:28;12.90;79.40
78297;DHT22;67555;47.660;19.622;2023-05-07T02:46:08;12.90;79.40
78297;DHT22;67555;47.660;19.622;2023-05-07T02:48:34;13.00;79.30
78297;DHT22;67555;47.660;19.622;2023-05-07T02:51:00;13.10;79.10
78297;DHT22;67555;47.660;19.622;2023-05-07T02:53:27;13.10;79.20
78297;DHT22;67555;47.660;19.622;2023-05-07T02:55:53;13.10;79.40
78297;DHT22;67555;47.660;19.622;2023-05-07T02:58:19;13.10;79.50
78297;DHT22;67555;47.660;19.622;2023-05-07T03:00:45;13.10;79.60
78297;DHT22;67555;47.660;19.622;2023-05-07T03:03:11;13.20;79.40
78297;DHT22;67555;47.660;19.622;2023-05-07T03:05:37;13.20;79.50
78297;DHT22;67555;47.660;19.622;2023-05-07T03:08:04;13.20;79.50
78297;DHT22;67555;47.660;19.622;2023-05-07T03:10:30;13.20;79.50
78297;DHT22;67555;47.660;19.622;2023-05-07T03:12:56;13.20;79.40
78297;DHT22;67555;47.660;19.622;2023-05-07T03:15:21;13.10;79.50
78297;DHT22;67555;47.660;19.622;2023-05-07T03:17:48;13.10;79.50
78297;DHT22;67555;47.660;19.622;2023-05-07T03:20:14;13.20;79.30
78297;DHT22;67555;47.660;19.622;2023-05-07T03:22:39;13.30;79.00
78297;DHT22;67555;47.660;19.622;2023-05-07T03:25:06;13.30;78.90
78297;DHT22;67555;47.660;19.622;2023-05-07T03:27:32;13.20;79.00
78297;DHT22;67555;47.660;19.622;2023-05-07T03:29:57;13.20;79.00
78297;DHT22;67555;47.660;19.622;2023-05-07T03:32:23;13.10;79.00
78297;DHT22;67555;47.660;19.622;2023-05-07T03:34:49;13.10;79.10
78297;DHT22;67555;47.660;19.622;2023-05-07T03:37:15;13.10;79.40
78297;DHT22;67555;47.660;19.622;2023-05-07T03:39:40;13.00;79.70
78297;DHT22;67555;47.660;19.622;2023-05-07T03:42:06;12.90;80.20
78297;DHT22;67555;47.660;19.622;2023-05-07T03:44:32;12.90;80.60
78297;DHT22;67555;47.660;19.622;2023-05-07T03:46:58;12.80;80.80
78297;DHT22;67555;47.660;19.622;2023-05-07T03:49:23;12.80;81.10
78297;DHT22;67555;47.660;19.622;2023-05-07T03:51:49;12.70;81.40
78297;DHT22;67555;47.660;19.622;2023-05-07T03:54:15;12.70;81.60
78297;DHT22;67555;47.660;19.622;2023-05-07T03:56:40;12.70;81.70
78297;DHT22;67555;47.660;19.622;2023-05-07T03:59:06;12.70;81.70
78297;DHT22;67555;47.660;19.622;2023-05-07T04:01:32;12.70;81.70
78297;DHT22;67555;47.660;19.622;2023-05-07T04:03:57;12.70;81.80
78297;DHT22;67555;47.660;19.622;2023-05-07T04:06:23;12.70;81.80
78297;DHT22;67555;47.660;19.622;2023-05-07T04:08:49;12.70;81.80
78297;DHT22;67555;47.660;19.622;2023-05-07T04:11:15;12.70;81.80
78297;DHT22;67555;47.660;19.622;2023-05-07T04:13:41;12.70;81.80
78297;DHT22;67555;47.660;19.622;2023-05-07T04:16:07;12.80;81.70
78297;DHT22;67555;47.660;19.622;2023-05-07T04:18:33;12.80;81.60
78297;DHT22;67555;47.660;19.622;2023-05-07T04:20:59;12.80;81.60
78297;DHT22;67555;47.660;19.622;2023-05-07T04:23:24;12.80;81.60
78297;DHT22;67555;47.660;19.622;2023-05-07T04:25:50;12.90;81.50
78297;DHT22;67555;47.660;19.622;2023-05-07T04:28:16;13.00;81.40
78297;DHT22;67555;47.660;19.622;2023-05-07T04:30:42;13.10;81.20
78297;DHT22;67555;47.660;19.622;2023-05-07T04:33:07;13.20;81.00
78297;DHT22;67555;47.660;19.622;2023-05-07T04:35:34;13.30;80.80
78297;DHT22;67555;47.660;19.622;2023-05-07T04:38:00;13.40;80.50
78297;DHT22;67555;47.660;19.622;2023-05-07T04:40:27;13.50;80.30
78297;DHT22;67555;47.660;19.622;2023-05-07T04:42:52;13.60;80.10
78297;DHT22;67555;47.660;19.622;2023-05-07T04:45:18;13.70;80.10
78297;DHT22;67555;47.660;19.622;2023-05-07T04:47:44;13.70;79.90
78297;DHT22;67555;47.660;19.622;2023-05-07T04:50:10;13.90;79.70
78297;DHT22;67555;47.660;19.622;2023-05-07T04:52:36;13.90;79.60
78297;DHT22;67555;47.660;19.622;2023-05-07T04:55:02;13.90;79.70
78297;DHT22;67555;47.660;19.622;2023-05-07T04:57:28;14.00;79.60
78297;DHT22;67555;47.660;19.622;2023-05-07T04:59:54;14.00;79.60
78297;DHT22;67555;47.660;19.622;2023-05-07T05:02:19;14.00;79.70
78297;DHT22;67555;47.660;19.622;2023-05-07T05:04:45;14.10;79.60
78297;DHT22;67555;47.660;19.622;2023-05-07T05:07:11;14.20;79.50
78297;DHT22;67555;47.660;19.622;2023-05-07T05:09:37;14.10;79.60
78297;DHT22;67555;47.660;19.622;2023-05-07T05:12:03;14.20;79.60
78297;DHT22;67555;47.660;19.622;2023-05-07T05:14:29;14.30;79.40
78297;DHT22;67555;47.660;19.622;2023-05-07T05:16:55;14.40;79.20
78297;DHT22;67555;47.660;19.622;2023-05-07T05:19:20;14.50;78.90
78297;DHT22;67555;47.660;19.622;2023-05-07T05:21:46;14.60;78.90
78297;DHT22;67555;47.660;19.622;2023-05-07T05:24:12;14.60;78.90
78297;DHT22;67555;47.660;19.622;2023-05-07T05:26:38;14.70;78.90
78297;DHT22;67555;47.660;19.622;2023-05-07T05:29:03;14.70;78.90
78297;DHT22;67555;47.660;19.622;2023-05-07T05:31:29;14.70;79.10
78297;DHT22;67555;47.660;19.622;2023-05-07T05:33:55;14.80;79.10
78297;DHT22;67555;47.660;19.622;2023-05-07T05:36:20;14.90;79.10
78297;DHT22;67555;47.660;19.622;2023-05-07T05:38:46;15.10;78.90
78297;DHT22;67555;47.660;19.622;2023-05-07T05:41:12;15.30;78.60
78297;DHT22;67555;47.660;19.622;2023-05-07T05:43:38;15.40;78.30
78297;DHT22;67555;47.660;19.622;2023-05-07T05:46:03;15.50;78.10
78297;DHT22;67555;47.660;19.622;2023-05-07T05:48:38;15.50;78.10
78297;DHT22;67555;47.660;19.622;2023-05-07T05:51:03;15.50;78.10
78297;DHT22;67555;47.660;19.622;2023-05-07T05:53:29;15.60;78.00
78297;DHT22;67555;47.660;19.622;2023-05-07T05:55:55;15.80;77.60
78297;DHT22;67555;47.660;19.622;2023-05-07T05:58:21;16.00;77.20
78297;DHT22;67555;47.660;19.622;2023-05-07T06:00:46;16.10;76.90
78297;DHT22;67555;47.660;19.622;2023-05-07T06:03:13;16.40;76.60
78297;DHT22;67555;47.660;19.622;2023-05-07T06:05:39;16.50;76.20
78297;DHT22;67555;47.660;19.622;2023-05-07T06:08:05;16.60;76.00
78297;DHT22;67555;47.660;19.622;2023-05-07T06:10:31;16.60;76.00
78297;DHT22;67555;47.660;19.622;2023-05-07T06:12:56;16.60;76.20
78297;DHT22;67555;47.660;19.622;2023-05-07T06:15:22;16.70;76.20
78297;DHT22;67555;47.660;19.622;2023-05-07T06:17:48;16.70;76.40
78297;DHT22;67555;47.660;19.622;2023-05-07T06:20:14;16.80;76.20
78297;DHT22;67555;47.660;19.622;2023-05-07T06:22:40;17.00;75.90
78297;DHT22;67555;47.660;19.622;2023-05-07T06:25:06;17.10;75.50
78297;DHT22;67555;47.660;19.622;2023-05-07T06:27:32;17.20;75.50
78297;DHT22;67555;47.660;19.622;2023-05-07T06:29:59;17.20;75.60
78297;DHT22;67555;47.660;19.622;2023-05-07T06:32:25;17.40;75.40
78297;DHT22;67555;47.660;19.622;2023-05-07T06:34:50;17.40;74.90
78297;DHT22;67555;47.660;19.622;2023-05-07T06:37:16;17.50;74.60
78297;DHT22;67555;47.660;19.622;2023-05-07T06:39:42;17.50;74.50
78297;DHT22;67555;47.660;19.622;2023-05-07T06:42:07;17.70;74.20
78297;DHT22;67555;47.660;19.622;2023-05-07T06:44:33;17.80;73.80
78297;DHT22;67555;47.660;19.622;2023-05-07T06:46:59;17.90;73.50
78297;DHT22;67555;47.660;19.622;2023-05-07T06:49:25;17.90;73.20
78297;DHT22;67555;47.660;19.622;2023-05-07T06:51:50;18.00;73.10
78297;DHT22;67555;47.660;19.622;2023-05-07T06:54:16;18.10;72.90
78297;DHT22;67555;47.660;19.622;2023-05-07T06:56:42;18.20;72.70
78297;DHT22;67555;47.660;19.622;2023-05-07T06:59:08;18.20;72.20
78297;DHT22;67555;47.660;19.622;2023-05-07T07:01:33;18.30;71.60
78297;DHT22;67555;47.660;19.622;2023-05-07T07:03:59;18.30;71.40
78297;DHT22;67555;47.660;19.622;2023-05-07T08:00:24;19.10;67.60
78297;DHT22;67555;47.660;19.622;2023-05-07T08:02:50;20.30;63.60
78297;DHT22;67555;47.660;19.622;2023-05-07T08:05:15;20.40;63.40
78297;DHT22;67555;47.660;19.622;2023-05-07T08:07:41;20.50;62.70
78297;DHT22;67555;47.660;19.622;2023-05-07T08:10:07;20.70;62.50
78297;DHT22;67555;47.660;19.622;2023-05-07T08:12:33;20.80;61.70
78297;DHT22;67555;47.660;19.622;2023-05-07T08:14:59;21.00;61.30
78297;DHT22;67555;47.660;19.622;2023-05-07T08:17:24;21.10;60.70
78297;DHT22;67555;47.660;19.622;2023-05-07T08:19:50;21.40;60.60
78297;DHT22;67555;47.660;19.622;2023-05-07T08:22:16;21.60;60.00
78297;DHT22;67555;47.660;19.622;2023-05-07T08:24:43;21.70;59.60
78297;DHT22;67555;47.660;19.622;2023-05-07T08:27:09;21.90;59.30
78297;DHT22;67555;47.660;19.622;2023-05-07T08:29:34;22.00;58.80
78297;DHT22;67555;47.660;19.622;2023-05-07T08:32:01;22.20;58.50
78297;DHT22;67555;47.660;19.622;2023-05-07T08:34:26;22.30;58.30
78297;DHT22;67555;47.660;19.622;2023-05-07T08:36:52;22.50;58.10
78297;DHT22;67555;47.660;19.622;2023-05-07T08:39:18;22.50;57.50
78297;DHT22;67555;47.660;19.622;2023-05-07T08:41:45;22.50;56.30
78297;DHT22;67555;47.660;19.622;2023-05-07T08:44:13;22.50;56.00
78297;DHT22;67555;47.660;19.622;2023-05-07T08:46:41;22.40;54.60
78297;DHT22;67555;47.660;19.622;2023-05-07T08:49:08;22.20;52.70
78297;DHT22;67555;47.660;19.622;2023-05-07T08:51:35;22.10;53.60
78297;DHT22;67555;47.660;19.622;2023-05-07T08:54:02;22.30;53.50
78297;DHT22;67555;47.660;19.622;2023-05-07T08:56:27;22.60;53.40
78297;DHT22;67555;47.660;19.622;2023-05-07T08:58:53;22.80;53.20
78297;DHT22;67555;47.660;19.622;2023-05-07T09:01:24;23.00;53.00
78297;DHT22;67555;47.660;19.622;2023-05-07T09:03:50;23.20;52.10
78297;DHT22;67555;47.660;19.622;2023-05-07T09:06:16;23.30;52.10
78297;DHT22;67555;47.660;19.622;2023-05-07T09:08:49;23.50;51.70
78297;DHT22;67555;47.660;19.622;2023-05-07T09:11:16;23.80;50.60
78297;DHT22;67555;47.660;19.622;2023-05-07T09:13:44;23.80;50.60
78297;DHT22;67555;47.660;19.622;2023-05-07T09:16:13;24.00;50.70
78297;DHT22;67555;47.660;19.622;2023-05-07T09:18:43;24.00;50.50
78297;DHT22;67555;47.660;19.622;2023-05-07T09:21:15;24.00;49.20
78297;DHT22;67555;47.660;19.622;2023-05-07T09:23:41;23.80;49.30
78297;DHT22;67555;47.660;19.622;2023-05-07T09:26:07;23.80;49.40
78297;DHT22;67555;47.660;19.622;2023-05-07T09:28:43;23.90;47.70
78297;DHT22;67555;47.660;19.622;2023-05-07T09:31:10;23.90;47.80
78297;DHT22;67555;47.660;19.622;2023-05-07T09:33:37;24.00;47.90
78297;DHT22;67555;47.660;19.622;2023-05-07T09:36:07;24.00;47.20
78297;DHT22;67555;47.660;19.622;2023-05-07T09:38:35;24.00;47.50
78297;DHT22;67555;47.660;19.622;2023-05-07T09:41:05;23.90;47.40
78297;DHT22;67555;47.660;19.622;2023-05-07T09:43:32;23.80;47.20
78297;DHT22;67555;47.660;19.622;2023-05-07T09:46:03;23.60;46.60
78297;DHT22;67555;47.660;19.622;2023-05-07T09:48:33;23.60;46.40
78297;DHT22;67555;47.660;19.622;2023-05-07T09:51:02;23.50;44.70
78297;DHT22;67555;47.660;19.622;2023-05-07T09:53:30;23.50;45.10
78297;DHT22;67555;47.660;19.622;2023-05-07T09:55:56;23.60;45.40
78297;DHT22;67555;47.660;19.622;2023-05-07T09:58:22;23.90;45.50
78297;DHT22;67555;47.660;19.622;2023-05-07T10:00:50;24.20;45.30
78297;DHT22;67555;47.660;19.622;2023-05-07T10:03:16;24.50;44.70
78297;DHT22;67555;47.660;19.622;2023-05-07T10:05:43;24.70;44.30
78297;DHT22;67555;47.660;19.622;2023-05-07T10:08:10;25.00;43.70
78297;DHT22;67555;47.660;19.622;2023-05-07T10:10:36;25.00;43.40
78297;DHT22;67555;47.660;19.622;2023-05-07T10:13:02;25.20;43.20
78297;DHT22;67555;47.660;19.622;2023-05-07T10:15:31;25.40;43.00
78297;DHT22;67555;47.660;19.622;2023-05-07T10:17:57;25.60;42.50
78297;DHT22;67555;47.660;19.622;2023-05-07T10:20:23;25.60;42.00
78297;DHT22;67555;47.660;19.622;2023-05-07T10:22:51;25.50;42.00
78297;DHT22;67555;47.660;19.622;2023-05-07T10:25:27;25.50;41.90
78297;DHT22;67555;47.660;19.622;2023-05-07T10:27:55;25.40;41.40
78297;DHT22;67555;47.660;19.622;2023-05-07T10:33:29;24.70;42.00
78297;DHT22;67555;47.660;19.622;2023-05-07T10:35:58;24.20;42.20
78297;DHT22;67555;47.660;19.622;2023-05-07T10:38:27;23.80;43.20
78297;DHT22;67555;47.660;19.622;2023-05-07T10:40:53;23.50;44.10
78297;DHT22;67555;47.660;19.622;2023-05-07T10:43:19;23.30;44.20
78297;DHT22;67555;47.660;19.622;2023-05-07T10:46:15;23.20;44.40
78297;DHT22;67555;47.660;19.622;2023-05-07T10:51:26;22.30;47.60
78297;DHT22;67555;47.660;19.622;2023-05-07T10:56:41;20.10;55.80
78297;DHT22;67555;47.660;19.622;2023-05-07T11:02:00;18.50;61.20
78297;DHT22;67555;47.660;19.622;2023-05-07T11:04:29;18.50;62.80
78297;DHT22;67555;47.660;19.622;2023-05-07T11:15:15;20.40;59.00
78297;DHT22;67555;47.660;19.622;2023-05-07T11:17:57;20.80;56.70
78297;DHT22;67555;47.660;19.622;2023-05-07T11:26:04;21.90;49.10
78297;DHT22;67555;47.660;19.622;2023-05-07T11:28:32;22.30;48.20
78297;DHT22;67555;47.660;19.622;2023-05-07T11:31:02;22.50;47.20
78297;DHT22;67555;47.660;19.622;2023-05-07T11:33:30;22.80;45.70
78297;DHT22;67555;47.660;19.622;2023-05-07T11:35:56;22.90;44.50
78297;DHT22;67555;47.660;19.622;2023-05-07T11:38:22;23.10;44.30
78297;DHT22;67555;47.660;19.622;2023-05-07T11:40:58;23.10;43.00
78297;DHT22;67555;47.660;19.622;2023-05-07T11:43:26;23.00;43.90
78297;DHT22;67555;47.660;19.622;2023-05-07T11:45:52;23.10;44.10
78297;DHT22;67555;47.660;19.622;2023-05-07T11:48:18;23.10;43.80
78297;DHT22;67555;47.660;19.622;2023-05-07T11:50:53;23.20;44.30
78297;DHT22;67555;47.660;19.622;2023-05-07T11:53:19;23.40;45.20
78297;DHT22;67555;47.660;19.622;2023-05-07T11:55:46;23.60;45.50
78297;DHT22;67555;47.660;19.622;2023-05-07T11:58:12;23.80;44.40
78297;DHT22;67555;47.660;19.622;2023-05-07T12:00:52;23.80;42.30
78297;DHT22;67555;47.660;19.622;2023-05-07T12:03:19;23.90;41.80
78297;DHT22;67555;47.660;19.622;2023-05-07T12:05:45;24.00;41.50
78297;DHT22;67555;47.660;19.622;2023-05-07T12:08:18;24.00;41.20
78297;DHT22;67555;47.660;19.622;2023-05-07T12:10:45;24.00;41.90
78297;DHT22;67555;47.660;19.622;2023-05-07T12:13:20;24.00;42.10
78297;DHT22;67555;47.660;19.622;2023-05-07T12:15:50;24.00;42.50
78297;DHT22;67555;47.660;19.622;2023-05-07T12:18:16;24.00;42.70
78297;DHT22;67555;47.660;19.622;2023-05-07T12:20:43;23.80;42.90
78297;DHT22;67555;47.660;19.622;2023-05-07T12:23:08;23.60;42.90
78297;DHT22;67555;47.660;19.622;2023-05-07T12:25:35;23.50;43.60
78297;DHT22;67555;47.660;19.622;2023-05-07T12:28:05;23.30;45.10
78297;DHT22;67555;47.660;19.622;2023-05-07T12:30:38;23.20;46.20
78297;DHT22;67555;47.660;19.622;2023-05-07T12:33:04;23.10;46.30
78297;DHT22;67555;47.660;19.622;2023-05-07T12:35:37;22.70;46.80
78297;DHT22;67555;47.660;19.622;2023-05-07T12:38:08;22.50;48.10
78297;DHT22;67555;47.660;19.622;2023-05-07T12:43:25;22.30;48.50
78297;DHT22;67555;47.660;19.622;2023-05-07T12:45:54;22.30;48.90
78297;DHT22;67555;47.660;19.622;2023-05-07T12:48:21;22.20;48.40
78297;DHT22;67555;47.660;19.622;2023-05-07T12:50:53;22.20;48.20
78297;DHT22;67555;47.660;19.622;2023-05-07T12:53:24;22.20;47.90
78297;DHT22;67555;47.660;19.622;2023-05-07T12:55:52;22.30;48.20
78297;DHT22;67555;47.660;19.622;2023-05-07T12:58:25;22.50;48.50
78297;DHT22;67555;47.660;19.622;2023-05-07T13:00:53;22.50;48.80
78297;DHT22;67555;47.660;19.622;2023-05-07T13:03:29;22.50;49.00
78297;DHT22;67555;47.660;19.622;2023-05-07T13:06:01;22.80;48.00
78297;DHT22;67555;47.660;19.622;2023-05-07T13:08:39;22.90;48.20
78297;DHT22;67555;47.660;19.622;2023-05-07T13:11:11;23.00;47.70
78297;DHT22;67555;47.660;19.622;2023-05-07T13:13:38;23.00;47.20
78297;DHT22;67555;47.660;19.622;2023-05-07T13:16:05;22.90;47.60
78297;DHT22;67555;47.660;19.622;2023-05-07T13:18:32;22.70;48.50
78297;DHT22;67555;47.660;19.622;2023-05-07T13:21:00;22.50;49.60
78297;DHT22;67555;47.660;19.622;2023-05-07T13:23:26;22.30;50.40
78297;DHT22;67555;47.660;19.622;2023-05-07T13:25:53;22.10;51.80
78297;DHT22;67555;47.660;19.622;2023-05-07T13:28:25;21.90;53.00
78297;DHT22;67555;47.660;19.622;2023-05-07T13:30:52;21.70;53.70
78297;DHT22;67555;47.660;19.622;2023-05-07T13:33:18;21.70;53.70
78297;DHT22;67555;47.660;19.622;2023-05-07T13:35:44;21.90;53.40
78297;DHT22;67555;47.660;19.622;2023-05-07T13:38:10;22.00;53.20
78297;DHT22;67555;47.660;19.622;2023-05-07T13:40:36;22.30;52.70
78297;DHT22;67555;47.660;19.622;2023-05-07T13:43:01;22.40;52.30
78297;DHT22;67555;47.660;19.622;2023-05-07T13:45:28;22.50;52.20
78297;DHT22;67555;47.660;19.622;2023-05-07T13:47:57;22.50;52.20
78297;DHT22;67555;47.660;19.622;2023-05-07T13:50:23;22.50;51.80
78297;DHT22;67555;47.660;19.622;2023-05-07T13:52:49;22.60;50.00
78297;DHT22;67555;47.660;19.622;2023-05-07T13:55:19;22.60;49.50
78297;DHT22;67555;47.660;19.622;2023-05-07T13:57:46;22.70;48.60
78297;DHT22;67555;47.660;19.622;2023-05-07T14:00:13;22.70;48.60
78297;DHT22;67555;47.660;19.622;2023-05-07T14:02:39;22.70;49.00
78297;DHT22;67555;47.660;19.622;2023-05-07T14:05:06;22.70;48.70
78297;DHT22;67555;47.660;19.622;2023-05-07T14:07:31;22.60;49.30
78297;DHT22;67555;47.660;19.622;2023-05-07T14:09:57;22.60;50.00
78297;DHT22;67555;47.660;19.622;2023-05-07T14:12:23;22.60;50.20
78297;DHT22;67555;47.660;19.622;2023-05-07T14:14:49;22.70;50.90
78297;DHT22;67555;47.660;19.622;2023-05-07T14:17:17;22.90;51.20
78297;DHT22;67555;47.660;19.622;2023-05-07T14:19:43;23.00;51.20
78297;DHT22;67555;47.660;19.622;2023-05-07T14:22:09;23.20;50.70
78297;DHT22;67555;47.660;19.622;2023-05-07T14:24:35;23.30;50.60
78297;DHT22;67555;47.660;19.622;2023-05-07T14:27:00;23.40;50.50
78297;DHT22;67555;47.660;19.622;2023-05-07T14:29:26;23.30;49.90
78297;DHT22;67555;47.660;19.622;2023-05-07T14:31:52;23.00;50.20
78297;DHT22;67555;47.660;19.622;2023-05-07T14:34:17;22.80;50.40
78297;DHT22;67555;47.660;19.622;2023-05-07T14:36:43;22.50;50.80
78297;DHT22;67555;47.660;19.622;2023-05-07T14:39:09;22.40;51.20
78297;DHT22;67555;47.660;19.622;2023-05-07T14:41:35;22.30;51.30
78297;DHT22;67555;47.660;19.622;2023-05-07T14:44:01;22.40;51.30
78297;DHT22;67555;47.660;19.622;2023-05-07T14:46:29;22.50;50.50
78297;DHT22;67555;47.660;19.622;2023-05-07T14:48:55;22.70;50.40
78297;DHT22;67555;47.660;19.622;2023-05-07T14:51:21;22.80;50.40
78297;DHT22;67555;47.660;19.622;2023-05-07T14:53:47;22.90;50.50
78297;DHT22;67555;47.660;19.622;2023-05-07T14:56:13;23.10;50.50
78297;DHT22;67555;47.660;19.622;2023-05-07T14:58:39;23.20;50.10
78297;DHT22;67555;47.660;19.622;2023-05-07T15:01:05;23.30;49.70
78297;DHT22;67555;47.660;19.622;2023-05-07T15:03:30;23.30;49.10
78297;DHT22;67555;47.660;19.622;2023-05-07T15:05:56;23.20;48.70
78297;DHT22;67555;47.660;19.622;2023-05-07T15:08:22;23.00;49.40
78297;DHT22;67555;47.660;19.622;2023-05-07T15:10:48;22.90;50.30
78297;DHT22;67555;47.660;19.622;2023-05-07T15:13:14;22.90;50.90
78297;DHT22;67555;47.660;19.622;2023-05-07T15:15:39;22.90;48.90
78297;DHT22;67555;47.660;19.622;2023-05-07T15:18:05;23.00;48.20
78297;DHT22;67555;47.660;19.622;2023-05-07T15:20:31;22.90;47.60
78297;DHT22;67555;47.660;19.622;2023-05-07T15:22:57;22.90;47.80
78297;DHT22;67555;47.660;19.622;2023-05-07T15:25:23;22.90;48.20
78297;DHT22;67555;47.660;19.622;2023-05-07T15:27:49;22.80;47.80
78297;DHT22;67555;47.660;19.622;2023-05-07T15:30:15;22.70;47.20
78297;DHT22;67555;47.660;19.622;2023-05-07T15:32:42;22.60;47.30
78297;DHT22;67555;47.660;19.622;2023-05-07T15:35:08;22.50;47.40
78297;DHT22;67555;47.660;19.622;2023-05-07T15:37:34;22.50;47.00
78297;DHT22;67555;47.660;19.622;2023-05-07T15:40:00;22.50;47.10
78297;DHT22;67555;47.660;19.622;2023-05-07T15:42:28;22.50;47.20
78297;DHT22;67555;47.660;19.622;2023-05-07T15:44:53;22.50;47.40
78297;DHT22;67555;47.660;19.622;2023-05-07T15:47:20;22.50;46.40
78297;DHT22;67555;47.660;19.622;2023-05-07T15:49:46;22.30;46.20
78297;DHT22;67555;47.660;19.622;2023-05-07T15:52:12;22.30;46.70
78297;DHT22;67555;47.660;19.622;2023-05-07T15:54:40;22.20;47.10
78297;DHT22;67555;47.660;19.622;2023-05-07T15:57:06;22.10;47.00
78297;DHT22;67555;47.660;19.622;2023-05-07T15:59:33;22.10;47.40
78297;DHT22;67555;47.660;19.622;2023-05-07T16:01:59;22.10;47.90
78297;DHT22;67555;47.660;19.622;2023-05-07T16:04:25;22.10;48.20
78297;DHT22;67555;47.660;19.622;2023-05-07T16:06:53;22.20;47.70
78297;DHT22;67555;47.660;19.622;2023-05-07T16:09:19;22.10;46.90
78297;DHT22;67555;47.660;19.622;2023-05-07T16:11:45;22.00;46.90
78297;DHT22;67555;47.660;19.622;2023-05-07T16:14:11;22.00;47.40
78297;DHT22;67555;47.660;19.622;2023-05-07T16:16:37;21.90;47.50
78297;DHT22;67555;47.660;19.622;2023-05-07T16:19:05;21.90;47.60
78297;DHT22;67555;47.660;19.622;2023-05-07T16:21:31;21.90;47.50
78297;DHT22;67555;47.660;19.622;2023-05-07T16:23:57;21.80;47.80
78297;DHT22;67555;47.660;19.622;2023-05-07T16:26:23;21.70;47.30
78297;DHT22;67555;47.660;19.622;2023-05-07T16:28:49;21.70;47.10
78297;DHT22;67555;47.660;19.622;2023-05-07T16:31:16;21.50;47.30
78297;DHT22;67555;47.660;19.622;2023-05-07T16:33:43;21.50;47.70
78297;DHT22;67555;47.660;19.622;2023-05-07T16:36:09;21.50;48.10